Time;durP1;ratioP1;P1;durP2;ratioP2;P2;SDS_P1;SDS_P2;PMS_P1;PMS_P2;Temp;Humidity;BMP_temperature;BMP_pressure;BME280_temperature;BME280_humidity;BME280_pressure;Samples;Min_cycle;Max_cycle;Signal;HPM_P1;HPM_P2
2024/02/17 00:02:03;;;;;;;9.95;2.13;;;;;;;-143.29;100.00;62188.47;4929663;29;20091;-96
2024/02/17 00:04:29;;;;;;;9.18;1.83;;;;;;;-143.29;100.00;62188.47;4930405;29;20024;-96
2024/02/17 00:06:55;;;;;;;11.10;2.50;;;;;;;-143.29;100.00;62188.47;4930335;29;20039;-96
2024/02/17 00:09:21;;;;;;;6.03;1.75;;;;;;;-143.29;100.00;62188.47;4929831;29;20110;-96
2024/02/17 00:11:47;;;;;;;9.63;2.40;;;;;;;-143.29;100.00;62188.47;4930449;29;20028;-96
2024/02/17 00:14:12;;;;;;;7.30;2.10;;;;;;;-143.29;100.00;62188.47;4930661;29;20032;-96
2024/02/17 00:16:40;;;;;;;11.65;1.73;;;;;;;-143.29;100.00;62188.47;4931162;29;20032;-96
2024/02/17 00:19:06;;;;;;;7.53;1.70;;;;;;;-143.29;100.00;62188.47;4929671;29;20024;-96
2024/02/17 00:21:32;;;;;;;9.13;2.35;;;;;;;-143.29;100.00;62188.47;4929857;29;20063;-96
2024/02/17 00:23:57;;;;;;;9.80;1.70;;;;;;;-143.29;100.00;62188.47;4930819;29;20096;-96
2024/02/17 00:26:23;;;;;;;9.68;2.08;;;;;;;-143.29;100.00;62188.47;4931664;29;20040;-96
2024/02/17 00:28:51;;;;;;;7.38;1.85;;;;;;;-143.29;100.00;62188.47;4930928;29;20060;-96
2024/02/17 00:31:18;;;;;;;8.25;1.95;;;;;;;-143.29;100.00;62188.47;4931256;29;20055;-96
2024/02/17 00:33:44;;;;;;;8.15;1.58;;;;;;;-143.29;100.00;62188.47;4934329;29;20191;-96
2024/02/17 00:36:10;;;;;;;9.00;2.00;;;;;;;-143.29;100.00;62188.47;4937396;29;20052;-96
2024/02/17 00:38:36;;;;;;;5.90;1.83;;;;;;;-143.29;100.00;62188.47;4937812;29;20032;-96
2024/02/17 00:41:06;;;;;;;7.15;2.20;;;;;;;-143.29;100.00;62188.47;4937893;29;20096;-96
2024/02/17 00:43:33;;;;;;;7.15;2.15;;;;;;;-143.29;100.00;62188.47;4938609;29;20024;-96
2024/02/17 00:45:59;;;;;;;13.60;4.25;;;;;;;-143.29;100.00;62188.47;4938829;29;20028;-96
2024/02/17 00:48:27;;;;;;;5.70;1.75;;;;;;;-143.29;100.00;62188.47;4937619;29;20046;-96
2024/02/17 00:50:56;;;;;;;8.73;1.73;;;;;;;-143.29;100.00;62188.47;4938242;29;20024;-96
2024/02/17 00:53:22;;;;;;;6.40;2.13;;;;;;;-143.29;100.00;62188.47;4939004;29;20036;-96
2024/02/17 00:55:48;;;;;;;10.50;2.00;;;;;;;-143.29;100.00;62188.47;4938564;29;20028;-96
2024/02/17 00:58:14;;;;;;;15.10;2.47;;;;;;;-143.29;100.00;62188.47;4938212;29;20043;-96
2024/02/17 01:00:40;;;;;;;11.95;2.67;;;;;;;-143.29;100.00;62188.47;4938487;29;20043;-96
2024/02/17 01:03:07;;;;;;;12.98;2.55;;;;;;;-143.29;100.00;62188.47;4939752;29;20036;-96
2024/02/17 01:05:32;;;;;;;10.65;2.58;;;;;;;-143.29;100.00;62188.47;4939187;29;20016;-96
2024/02/17 01:07:58;;;;;;;8.25;2.13;;;;;;;-143.29;100.00;62188.47;4938262;29;20039;-96
2024/02/17 01:10:24;;;;;;;6.90;1.95;;;;;;;-143.29;100.00;62188.47;4938754;29;20024;-96
2024/02/17 01:12:50;;;;;;;9.13;2.22;;;;;;;-143.29;100.00;62188.47;4938864;29;20036;-96
2024/02/17 01:15:16;;;;;;;14.82;2.25;;;;;;;-143.29;100.00;62188.47;4938687;29;20032;-96
2024/02/17 01:17:41;;;;;;;17.67;2.55;;;;;;;-143.29;100.00;62188.47;4937698;29;20028;-96
2024/02/17 01:20:07;;;;;;;17.83;3.70;;;;;;;-143.29;100.00;62188.47;4937790;29;20075;-96
2024/02/17 01:22:33;;;;;;;13.52;3.10;;;;;;;-143.29;100.00;62188.47;4938175;29;20048;-96
2024/02/17 01:24:59;;;;;;;13.02;2.85;;;;;;;-143.29;100.00;62188.47;4938221;29;20032;-96
2024/02/17 01:27:26;;;;;;;16.63;2.60;;;;;;;-143.29;100.00;62188.47;4938622;29;20000;-96
2024/02/17 01:29:52;;;;;;;11.93;2.88;;;;;;;-143.29;100.00;62188.47;4938563;29;20043;-95
2024/02/17 01:32:17;;;;;;;13.45;2.90;;;;;;;-143.29;100.00;62188.47;4938132;29;20028;-96
2024/02/17 01:34:43;;;;;;;7.22;2.58;;;;;;;-143.29;100.00;62188.47;4938645;29;20060;-96
2024/02/17 01:37:09;;;;;;;15.82;2.25;;;;;;;-143.29;100.00;62188.47;4939142;29;20020;-96
2024/02/17 01:39:35;;;;;;;10.73;2.22;;;;;;;-143.29;100.00;62188.47;4939052;29;20084;-96
2024/02/17 01:42:00;;;;;;;10.43;2.40;;;;;;;-143.29;100.00;62188.47;4939273;29;20495;-96
2024/02/17 01:44:27;;;;;;;12.25;2.58;;;;;;;-143.29;100.00;62188.47;4938421;29;20012;-96
2024/02/17 01:46:53;;;;;;;11.00;2.30;;;;;;;-143.29;100.00;62188.47;4935552;29;20032;-96
2024/02/17 01:49:20;;;;;;;17.40;3.20;;;;;;;-143.29;100.00;62188.47;4936077;29;20096;-96
2024/02/17 01:51:46;;;;;;;12.80;2.95;;;;;;;-143.29;100.00;62188.47;4936557;29;20035;-96
2024/02/17 01:54:16;;;;;;;13.18;2.78;;;;;;;-143.29;100.00;62188.47;4937375;29;20033;-96
2024/02/17 01:56:43;;;;;;;9.68;2.17;;;;;;;-143.29;100.00;62188.47;4936667;29;20036;-96
2024/02/17 01:59:09;;;;;;;16.63;4.10;;;;;;;-143.29;100.00;62188.47;4936344;29;20078;-96
2024/02/17 02:01:37;;;;;;;8.98;3.25;;;;;;;-143.29;100.00;62188.47;4936375;29;20032;-96
2024/02/17 02:04:04;;;;;;;15.77;2.65;;;;;;;-143.29;100.00;62188.47;4936503;29;20088;-96
2024/02/17 02:06:30;;;;;;;7.80;2.55;;;;;;;-143.29;100.00;62188.47;4936601;29;20047;-96
2024/02/17 02:08:56;;;;;;;7.40;2.42;;;;;;;-143.29;100.00;62188.47;4936981;29;20043;-96
2024/02/17 02:11:23;;;;;;;13.50;2.65;;;;;;;-143.29;100.00;62188.47;4936269;29;20020;-96
2024/02/17 02:13:49;;;;;;;11.07;2.85;;;;;;;-143.29;100.00;62188.47;4920725;29;20204;-96
2024/02/17 02:16:17;;;;;;;14.00;2.72;;;;;;;-143.29;100.00;62188.47;4937028;29;20027;-96
2024/02/17 02:18:43;;;;;;;15.25;3.10;;;;;;;-143.29;100.00;62188.47;4936712;29;20056;-96
2024/02/17 02:21:08;;;;;;;16.17;4.43;;;;;;;-143.29;100.00;62188.47;4935729;29;20028;-96
2024/02/17 02:23:35;;;;;;;9.93;3.35;;;;;;;-143.29;100.00;62188.47;4937066;29;20024;-96
2024/02/17 02:26:01;;;;;;;8.77;2.13;;;;;;;-143.29;100.00;62188.47;4937176;29;20060;-96
2024/02/17 02:28:28;;;;;;;10.38;2.47;;;;;;;-143.29;100.00;62188.47;4936158;29;20036;-96
2024/02/17 02:30:57;;;;;;;10.25;2.67;;;;;;;-143.29;100.00;62188.47;4936928;29;20035;-96
2024/02/17 02:33:26;;;;;;;15.57;2.55;;;;;;;-143.29;100.00;62188.47;4922076;29;20032;-96
2024/02/17 02:35:51;;;;;;;11.73;2.80;;;;;;;-143.29;100.00;62188.47;4938337;29;20024;-96
2024/02/17 02:38:17;;;;;;;11.20;2.70;;;;;;;-143.29;100.00;62188.47;4937403;29;20063;-96
2024/02/17 02:40:43;;;;;;;4.70;2.00;;;;;;;-143.29;100.00;62188.47;4937364;29;20082;-96
2024/02/17 02:43:09;;;;;;;6.15;2.15;;;;;;;-143.29;100.00;62188.47;4922621;29;20024;-96
2024/02/17 02:45:39;;;;;;;4.90;1.90;;;;;;;-143.29;100.00;62188.47;4937570;29;20046;-96
2024/02/17 02:48:05;;;;;;;7.30;1.98;;;;;;;-143.29;100.00;62188.47;4937866;29;20020;-96
2024/02/17 02:50:32;;;;;;;8.80;1.98;;;;;;;-143.29;100.00;62188.47;4937628;29;20032;-96
2024/02/17 02:52:58;;;;;;;6.88;2.13;;;;;;;-143.29;100.00;62188.47;4936337;29;20043;-96
2024/02/17 02:55:24;;;;;;;5.90;1.92;;;;;;;-143.29;100.00;62188.47;4936985;29;20044;-96
2024/02/17 02:57:51;;;;;;;7.30;2.63;;;;;;;-143.29;100.00;62188.47;4936791;29;20032;-96
2024/02/17 03:00:19;;;;;;;6.35;2.00;;;;;;;-143.29;100.00;62188.47;4953148;29;20119;-96
2024/02/17 03:02:48;;;;;;;4.22;1.90;;;;;;;-143.29;100.00;62188.47;4938013;29;20032;-96
2024/02/17 03:05:15;;;;;;;3.67;2.70;;;;;;;-143.29;100.00;62188.47;4938239;29;20035;-96
2024/02/17 03:07:42;;;;;;;6.95;2.63;;;;;;;-143.29;100.00;62188.47;4938815;29;20035;-96
2024/02/17 03:10:15;;;;;;;4.75;1.80;;;;;;;-143.29;100.00;62188.47;4940410;29;20068;-96
2024/02/17 03:12:50;;;;;;;3.83;1.77;;;;;;;-143.29;100.00;62188.47;4941684;29;20028;-96
2024/02/17 03:15:39;;;;;;;7.78;2.20;;;;;;;-143.29;100.00;62188.47;4940673;29;20029;-96
2024/02/17 03:18:45;;;;;;;6.13;2.67;;;;;;;-143.29;100.00;62188.47;4939905;29;20028;-96
2024/02/17 03:21:17;;;;;;;3.13;1.70;;;;;;;-143.29;100.00;62188.47;4938584;29;20104;-96
2024/02/17 03:23:44;;;;;;;4.70;2.10;;;;;;;-143.29;100.00;62188.47;4936388;29;20029;-96
2024/02/17 03:26:09;;;;;;;5.38;1.90;;;;;;;-143.29;100.00;62188.47;4934225;29;20027;-96
2024/02/17 03:28:35;;;;;;;4.13;2.10;;;;;;;-143.29;100.00;62188.47;4935916;29;20036;-96
2024/02/17 03:31:01;;;;;;;6.20;2.25;;;;;;;-143.29;100.00;62188.47;4919875;29;20028;-96
2024/02/17 03:33:29;;;;;;;4.47;2.30;;;;;;;-143.29;100.00;62188.47;4935246;29;20039;-96
2024/02/17 03:35:55;;;;;;;6.15;2.10;;;;;;;-143.29;100.00;62188.47;4918867;29;20035;-96
2024/02/17 03:38:20;;;;;;;4.22;2.40;;;;;;;-143.29;100.00;62188.47;4917465;29;20032;-96
2024/02/17 03:40:46;;;;;;;6.95;2.50;;;;;;;-143.29;100.00;62188.47;4932789;29;20028;-96
2024/02/17 03:43:12;;;;;;;4.43;1.95;;;;;;;-143.29;100.00;62188.47;4931650;29;20078;-95
2024/02/17 03:45:38;;;;;;;7.65;2.00;;;;;;;-143.29;100.00;62188.47;4932314;29;20625;-96
2024/02/17 03:48:04;;;;;;;2.20;2.00;;;;;;;-143.29;100.00;62188.47;4932016;29;20071;-96
2024/02/17 03:50:30;;;;;;;2.42;1.67;;;;;;;-143.29;100.00;62188.47;4932759;29;20028;-96
2024/02/17 03:52:56;;;;;;;4.32;1.63;;;;;;;-143.29;100.00;62188.47;4932658;29;20079;-96
2024/02/17 03:55:24;;;;;;;6.63;2.03;;;;;;;-143.29;100.00;62188.47;4933163;29;20048;-96
2024/02/17 03:57:49;;;;;;;5.90;2.15;;;;;;;-143.29;100.00;62188.47;4932513;29;20043;-96
2024/02/17 04:00:15;;;;;;;4.20;1.92;;;;;;;-143.29;100.00;62188.47;4933058;29;20032;-96
2024/02/17 04:02:41;;;;;;;4.72;2.30;;;;;;;-143.29;100.00;62188.47;4932828;29;20032;-96
2024/02/17 04:05:11;;;;;;;2.25;1.38;;;;;;;-143.29;100.00;62188.47;4932797;29;20038;-96
2024/02/17 04:07:39;;;;;;;3.50;1.70;;;;;;;-143.29;100.00;62188.47;4932280;29;20031;-96
2024/02/17 04:10:05;;;;;;;5.35;2.28;;;;;;;-143.29;100.00;62188.47;4933443;29;20032;-96
2024/02/17 04:12:32;;;;;;;3.05;1.60;;;;;;;-143.29;100.00;62188.47;4932626;29;20024;-96
2024/02/17 04:14:57;;;;;;;2.72;1.65;;;;;;;-143.29;100.00;62188.47;4932963;29;20031;-96
2024/02/17 04:17:23;;;;;;;2.88;1.60;;;;;;;-143.29;100.00;62188.47;4932360;29;20055;-96
2024/02/17 04:19:49;;;;;;;3.65;1.80;;;;;;;-143.29;100.00;62188.47;4932575;29;20111;-96
2024/02/17 04:22:16;;;;;;;3.35;2.10;;;;;;;-143.29;100.00;62188.47;4932894;29;20025;-96
2024/02/17 04:24:41;;;;;;;3.45;2.17;;;;;;;-143.29;100.00;62188.47;4932358;29;20036;-96
2024/02/17 04:27:08;;;;;;;2.85;1.95;;;;;;;-143.29;100.00;62188.47;4932898;29;20032;-96
2024/02/17 04:29:34;;;;;;;3.55;2.00;;;;;;;-143.29;100.00;62188.47;4932520;29;20578;-96
2024/02/17 04:32:00;;;;;;;2.83;1.95;;;;;;;-143.29;100.00;62188.47;4931935;29;20035;-96
2024/02/17 04:34:27;;;;;;;4.15;2.10;;;;;;;-143.29;100.00;62188.47;4934278;29;20032;-96
2024/02/17 04:36:53;;;;;;;4.28;2.67;;;;;;;-143.29;100.00;62188.47;4932584;29;20066;-96
2024/02/17 04:39:21;;;;;;;2.17;1.60;;;;;;;-143.29;100.00;62188.47;4934616;29;20040;-96
2024/02/17 04:41:48;;;;;;;2.88;1.88;;;;;;;-143.29;100.00;62188.47;4934671;29;20020;-96
2024/02/17 04:44:14;;;;;;;1.58;1.40;;;;;;;-143.29;100.00;62188.47;4933865;29;20036;-96
2024/02/17 04:46:41;;;;;;;2.53;1.80;;;;;;;-143.29;100.00;62188.47;4933338;29;20047;-96
2024/02/17 04:49:11;;;;;;;4.18;1.88;;;;;;;-143.29;100.00;62188.47;4933912;29;20052;-96
2024/02/17 04:51:36;;;;;;;4.53;2.63;;;;;;;-143.29;100.00;62188.47;4933897;29;20025;-96
2024/02/17 04:54:03;;;;;;;2.33;2.00;;;;;;;-143.29;100.00;62188.47;4934384;29;20111;-96
2024/02/17 04:56:30;;;;;;;3.28;2.03;;;;;;;-143.29;100.00;62188.47;4933162;29;20055;-96
2024/02/17 04:58:56;;;;;;;3.33;2.03;;;;;;;-143.29;100.00;62188.47;4933614;29;20031;-96
2024/02/17 05:01:23;;;;;;;3.85;2.10;;;;;;;-143.29;100.00;62188.47;4935120;29;20035;-96
2024/02/17 05:03:50;;;;;;;3.42;2.15;;;;;;;-143.29;100.00;62188.47;4934167;29;20038;-96
2024/02/17 05:06:17;;;;;;;3.08;2.17;;;;;;;-143.29;100.00;62188.47;4933104;29;20023;-96
2024/02/17 05:08:45;;;;;;;4.32;2.50;;;;;;;-143.29;100.00;62188.47;4918826;29;20032;-96
2024/02/17 05:11:13;;;;;;;5.88;2.90;;;;;;;-143.29;100.00;62188.47;4934414;29;20028;-96
2024/02/17 05:13:40;;;;;;;5.43;2.67;;;;;;;-143.29;100.00;62188.47;4933745;29;20061;-96
2024/02/17 05:16:07;;;;;;;4.90;3.47;;;;;;;-143.29;100.00;62188.47;4933724;29;20112;-96
2024/02/17 05:18:34;;;;;;;3.80;2.67;;;;;;;-143.29;100.00;62188.47;4934090;29;20063;-96
2024/02/17 05:21:00;;;;;;;4.00;3.08;;;;;;;-143.29;100.00;62188.47;4938327;29;20096;-96
2024/02/17 05:23:26;;;;;;;3.47;2.55;;;;;;;-143.29;100.00;62188.47;4937885;29;20028;-96
2024/02/17 05:25:54;;;;;;;5.25;2.58;;;;;;;-143.29;100.00;62188.47;4938277;29;20032;-96
2024/02/17 05:28:24;;;;;;;5.00;3.22;;;;;;;-143.29;100.00;62188.47;4938152;29;20099;-96
2024/02/17 05:30:50;;;;;;;4.18;3.17;;;;;;;-143.29;100.00;62188.47;4938628;29;20032;-96
2024/02/17 05:33:19;;;;;;;4.10;2.50;;;;;;;-143.29;100.00;62188.47;4937724;29;20040;-96
2024/02/17 05:35:49;;;;;;;5.20;3.35;;;;;;;-143.29;100.00;62188.47;4922118;29;20036;-96
2024/02/17 05:38:20;;;;;;;4.25;2.63;;;;;;;-143.29;100.00;62188.47;4922184;29;20032;-96
2024/02/17 05:40:47;;;;;;;8.13;3.90;;;;;;;-143.29;100.00;62188.47;4937926;29;20099;-96
2024/02/17 05:43:17;;;;;;;5.97;4.00;;;;;;;-143.29;100.00;62188.47;4939399;29;20091;-96
2024/02/17 05:45:47;;;;;;;7.20;4.88;;;;;;;-143.29;100.00;62188.47;4938073;29;20059;-96
2024/02/17 05:48:14;;;;;;;7.18;4.55;;;;;;;-143.29;100.00;62188.47;4937557;29;20039;-96
2024/02/17 05:50:53;;;;;;;7.20;4.85;;;;;;;-143.29;100.00;62188.47;4938400;29;20029;-96
2024/02/17 05:53:20;;;;;;;6.63;4.50;;;;;;;-143.29;100.00;62188.47;4938760;29;20035;-96
2024/02/17 05:55:46;;;;;;;8.00;4.90;;;;;;;-143.29;100.00;62188.47;4938548;29;20034;-96
2024/02/17 05:58:13;;;;;;;7.22;4.40;;;;;;;-143.29;100.00;62188.47;4939763;29;20071;-96
2024/02/17 06:00:40;;;;;;;9.40;4.88;;;;;;;-143.29;100.00;62188.47;4939732;29;20028;-96
2024/02/17 06:03:08;;;;;;;7.38;5.13;;;;;;;-143.29;100.00;62188.47;4939413;29;20307;-96
2024/02/17 06:05:35;;;;;;;7.75;4.82;;;;;;;-143.29;100.00;62188.47;4939935;29;20072;-96
2024/02/17 06:08:03;;;;;;;6.57;4.22;;;;;;;-143.29;100.00;62188.47;4938382;29;20031;-96
2024/02/17 06:10:31;;;;;;;8.32;5.53;;;;;;;-143.29;100.00;62188.47;4923267;29;20028;-96
2024/02/17 06:12:57;;;;;;;8.02;5.07;;;;;;;-143.29;100.00;62188.47;4938003;29;20059;-96
2024/02/17 06:15:24;;;;;;;10.00;6.72;;;;;;;-143.29;100.00;62188.47;4937760;29;20040;-96
2024/02/17 06:21:10;;;;;;;7.13;5.22;;;;;;;-143.29;100.00;62188.47;4921409;29;20032;-96
2024/02/17 06:23:25;;;;;;;8.43;6.30;;;;;;;-143.29;100.00;62188.47;4938476;29;20039;-96
2024/02/17 06:25:53;;;;;;;9.82;7.20;;;;;;;-143.29;100.00;62188.47;4937521;29;20073;-96
2024/02/17 06:28:19;;;;;;;11.68;7.45;;;;;;;-143.29;100.00;62188.47;4936736;29;20391;-96
2024/02/17 06:30:48;;;;;;;10.15;6.93;;;;;;;-143.29;100.00;62188.47;4936668;29;20039;-96
2024/02/17 06:33:13;;;;;;;11.73;7.00;;;;;;;-143.29;100.00;62188.47;4936793;29;20060;-96
2024/02/17 06:35:41;;;;;;;9.35;6.50;;;;;;;-143.29;100.00;62188.47;4937379;29;20032;-96
2024/02/17 06:38:07;;;;;;;11.15;7.05;;;;;;;-143.29;100.00;62188.47;4937542;29;20032;-96
2024/02/17 06:40:34;;;;;;;11.45;7.35;;;;;;;-143.29;100.00;62188.47;4936635;29;20072;-96
2024/02/17 06:43:04;;;;;;;15.35;7.43;;;;;;;-143.29;100.00;62188.47;4936326;29;20051;-96
2024/02/17 06:45:30;;;;;;;10.48;7.10;;;;;;;-143.29;100.00;62188.47;4936424;29;20028;-96
2024/02/17 06:47:57;;;;;;;11.75;7.65;;;;;;;-143.29;100.00;62188.47;4936067;29;20047;-96
2024/02/17 06:50:24;;;;;;;9.98;7.60;;;;;;;-143.29;100.00;62188.47;4937729;29;20012;-96
2024/02/17 06:52:55;;;;;;;12.43;8.43;;;;;;;-143.29;100.00;62188.47;4937645;29;20111;-96
2024/02/17 06:55:21;;;;;;;7.65;6.43;;;;;;;-143.29;100.00;62188.47;4938003;29;20008;-96
2024/02/17 06:57:48;;;;;;;13.98;7.85;;;;;;;-143.29;100.00;62188.47;4952588;28;20051;-96
2024/02/17 07:00:16;;;;;;;11.55;7.80;;;;;;;-143.29;100.00;62188.47;4919174;29;20040;-96
2024/02/17 07:02:42;;;;;;;9.05;7.32;;;;;;;-143.29;100.00;62188.47;4918826;29;20067;-96
2024/02/17 07:05:08;;;;;;;9.75;7.20;;;;;;;-143.29;100.00;62188.47;4934297;29;20036;-96
2024/02/17 07:07:34;;;;;;;9.63;6.60;;;;;;;-143.29;100.00;62188.47;4933188;29;20024;-96
2024/02/17 07:10:03;;;;;;;8.48;6.65;;;;;;;-143.29;100.00;62188.47;4930552;29;20025;-96
2024/02/17 07:12:31;;;;;;;8.73;6.55;;;;;;;-143.29;100.00;62188.47;4929145;29;20032;-96
2024/02/17 07:14:57;;;;;;;10.27;7.03;;;;;;;-143.29;100.00;62188.47;4927524;29;20529;-96
2024/02/17 07:17:23;;;;;;;11.63;6.70;;;;;;;-143.29;100.00;62188.47;4926033;29;20483;-96
2024/02/17 07:19:49;;;;;;;7.88;6.03;;;;;;;-143.29;100.00;62188.47;4925182;29;20024;-96
2024/02/17 07:22:14;;;;;;;9.93;6.40;;;;;;;-143.29;100.00;62188.47;4923449;29;20036;-95
2024/02/17 07:24:42;;;;;;;10.13;7.05;;;;;;;-143.29;100.00;62188.47;4922449;29;20050;-96
2024/02/17 07:27:08;;;;;;;9.20;6.90;;;;;;;-143.29;100.00;62188.47;4921585;29;20055;-95
2024/02/17 07:29:37;;;;;;;9.55;6.32;;;;;;;-143.29;100.00;62188.47;4921281;29;20043;-96
2024/02/17 07:32:05;;;;;;;12.25;6.50;;;;;;;-143.29;100.00;62188.47;4921070;29;20025;-96
2024/02/17 07:34:31;;;;;;;8.55;6.13;;;;;;;-143.29;100.00;62188.47;4920321;29;20039;-96
2024/02/17 07:36:58;;;;;;;6.68;4.97;;;;;;;-143.29;100.00;62188.47;4920377;29;20036;-96
2024/02/17 07:39:24;;;;;;;6.90;5.45;;;;;;;-143.29;100.00;62188.47;4920182;29;20024;-96
2024/02/17 07:41:53;;;;;;;7.85;5.28;;;;;;;-143.29;100.00;62188.47;4919339;29;20028;-96
2024/02/17 07:44:20;;;;;;;7.15;4.82;;;;;;;-143.29;100.00;62188.47;4919859;29;20020;-96
2024/02/17 07:46:47;;;;;;;7.50;5.07;;;;;;;-143.29;100.00;62188.47;4919871;29;20906;-96
2024/02/17 07:49:12;;;;;;;6.28;4.95;;;;;;;-143.29;100.00;62188.47;4919773;29;20028;-96
2024/02/17 07:51:40;;;;;;;8.65;5.82;;;;;;;-143.29;100.00;62188.47;4919394;29;20020;-96
2024/02/17 07:54:05;;;;;;;8.75;5.18;;;;;;;-143.29;100.00;62188.47;4919030;29;20032;-96
2024/02/17 07:56:31;;;;;;;7.07;5.47;;;;;;;-143.29;100.00;62188.47;4918669;29;20024;-96
2024/02/17 07:58:56;;;;;;;7.32;5.00;;;;;;;-143.29;100.00;62188.47;4918917;29;20486;-96
2024/02/17 08:01:22;;;;;;;8.02;5.00;;;;;;;-143.29;100.00;62188.47;4918556;29;20024;-96
2024/02/17 08:03:48;;;;;;;5.07;4.18;;;;;;;-143.29;100.00;62188.47;4918809;29;20100;-96
2024/02/17 08:06:20;;;;;;;6.25;4.78;;;;;;;-143.29;100.00;62188.47;4918858;29;20040;-96
2024/02/17 08:08:46;;;;;;;8.73;4.13;;;;;;;-143.29;100.00;62188.47;4918636;29;20110;-96
2024/02/17 08:11:12;;;;;;;5.65;4.30;;;;;;;-143.29;100.00;62188.47;4918636;29;20051;-96
2024/02/17 08:13:41;;;;;;;5.32;3.72;;;;;;;-143.29;100.00;62188.47;4918780;29;20032;-96
2024/02/17 08:16:07;;;;;;;7.13;4.65;;;;;;;-143.29;100.00;62188.47;4918208;29;20118;-96
2024/02/17 08:18:33;;;;;;;5.97;4.03;;;;;;;-143.29;100.00;62188.47;4918266;29;20063;-96
2024/02/17 08:21:00;;;;;;;4.78;4.00;;;;;;;-143.29;100.00;62188.47;4918396;29;20071;-96
2024/02/17 08:23:27;;;;;;;9.73;4.10;;;;;;;-143.29;100.00;62188.47;4917422;29;20032;-96
2024/02/17 08:25:53;;;;;;;5.72;4.10;;;;;;;-143.29;100.00;62188.47;4917770;29;20047;-96
2024/02/17 08:28:19;;;;;;;5.43;3.85;;;;;;;-143.29;100.00;62188.47;4917754;29;20492;-96
2024/02/17 08:30:44;;;;;;;8.60;4.13;;;;;;;-143.29;100.00;62188.47;4917798;29;20124;-96
2024/02/17 08:33:09;;;;;;;7.55;4.57;;;;;;;-143.29;100.00;62188.47;4917705;29;20360;-95
2024/02/17 08:35:36;;;;;;;5.35;4.22;;;;;;;-143.29;100.00;62188.47;4917954;29;20032;-96
2024/02/17 08:38:02;;;;;;;8.30;4.72;;;;;;;-143.29;100.00;62188.47;4917692;29;20350;-96
2024/02/17 08:40:27;;;;;;;8.10;5.90;;;;;;;-143.29;100.00;62188.47;4918184;29;20029;-96
2024/02/17 08:42:53;;;;;;;6.43;4.80;;;;;;;-143.29;100.00;62188.47;4918315;29;20024;-96
2024/02/17 08:45:19;;;;;;;8.73;4.95;;;;;;;-143.29;100.00;62188.47;4918352;29;20059;-96
2024/02/17 08:47:44;;;;;;;6.72;4.35;;;;;;;-143.29;100.00;62188.47;4917895;29;20479;-96
2024/02/17 08:50:10;;;;;;;7.30;4.47;;;;;;;-143.29;100.00;62188.47;4917774;29;20024;-96
2024/02/17 08:52:35;;;;;;;7.55;4.95;;;;;;;-143.29;100.00;62188.47;4917650;29;20028;-96
2024/02/17 08:55:01;;;;;;;6.75;4.20;;;;;;;-143.29;100.00;62188.47;4919471;29;20020;-96
2024/02/17 08:57:26;;;;;;;11.75;4.07;;;;;;;-143.29;100.00;62188.47;4921417;29;20066;-96
2024/02/17 08:59:52;;;;;;;8.40;4.55;;;;;;;-143.29;100.00;62188.47;4921084;29;20120;-96
2024/02/17 09:02:18;;;;;;;8.15;3.58;;;;;;;-143.29;100.00;62188.47;4921168;29;20056;-96
2024/02/17 09:04:45;;;;;;;6.85;3.80;;;;;;;-143.29;100.00;62188.47;4921198;29;20032;-96
2024/02/17 09:07:11;;;;;;;6.38;3.47;;;;;;;-143.29;100.00;62188.47;4921537;29;20087;-96
2024/02/17 09:09:36;;;;;;;3.28;2.40;;;;;;;-143.29;100.00;62188.47;4921086;29;20036;-96
2024/02/17 09:12:02;;;;;;;3.92;2.20;;;;;;;-143.29;100.00;62188.47;4920787;29;20482;-96
2024/02/17 09:14:33;;;;;;;3.45;2.20;;;;;;;-143.29;100.00;62188.47;4920892;29;20498;-96
2024/02/17 09:16:59;;;;;;;2.83;1.87;;;;;;;-143.29;100.00;62188.47;4920917;29;20024;-96
2024/02/17 09:19:25;;;;;;;3.03;1.58;;;;;;;-143.29;100.00;62188.47;4921168;29;20439;-96
2024/02/17 09:21:51;;;;;;;2.92;1.50;;;;;;;-143.29;100.00;62188.47;4920891;29;20032;-96
2024/02/17 09:24:19;;;;;;;1.48;1.30;;;;;;;-143.29;100.00;62188.47;4920687;29;20061;-96
2024/02/17 09:26:45;;;;;;;1.17;0.90;;;;;;;-143.29;100.00;62188.47;4920857;29;20036;-96
2024/02/17 09:29:11;;;;;;;1.17;0.70;;;;;;;-143.29;100.00;62188.47;4920308;29;20475;-96
2024/02/17 09:31:36;;;;;;;2.17;0.70;;;;;;;-143.29;100.00;62188.47;4920483;29;20035;-96
2024/02/17 09:34:02;;;;;;;1.70;0.65;;;;;;;-143.29;100.00;62188.47;4920371;29;20047;-96
2024/02/17 09:36:28;;;;;;;0.70;0.70;;;;;;;-143.29;100.00;62188.47;4920376;29;20028;-96
2024/02/17 09:38:54;;;;;;;0.90;0.70;;;;;;;-143.29;100.00;62188.47;4919307;29;20566;-96
2024/02/17 09:41:19;;;;;;;0.75;0.70;;;;;;;-143.29;100.00;62188.47;4920184;29;20036;-96
2024/02/17 09:43:45;;;;;;;2.33;1.05;;;;;;;-143.29;100.00;62188.47;4919952;29;20032;-96
2024/02/17 09:46:13;;;;;;;1.13;0.88;;;;;;;-143.29;100.00;62188.47;4919638;29;20574;-96
2024/02/17 09:48:39;;;;;;;2.70;1.00;;;;;;;-143.29;100.00;62188.47;4920246;29;20487;-96
2024/02/17 09:51:08;;;;;;;3.28;1.13;;;;;;;-143.29;100.00;62188.47;4919860;29;20037;-96
2024/02/17 09:53:37;;;;;;;2.58;0.90;;;;;;;-143.29;100.00;62188.47;4919509;29;20024;-96
2024/02/17 09:56:02;;;;;;;3.13;0.98;;;;;;;-143.29;100.00;62188.47;4920220;29;20036;-96
2024/02/17 09:58:28;;;;;;;4.13;0.93;;;;;;;-143.29;100.00;62188.47;4919923;29;20035;-96
2024/02/17 10:00:53;;;;;;;2.28;0.80;;;;;;;-143.29;100.00;62188.47;4919924;29;20025;-96
2024/02/17 10:03:19;;;;;;;1.27;0.82;;;;;;;-143.29;100.00;62188.47;4919990;29;20028;-96
2024/02/17 10:05:44;;;;;;;1.10;0.68;;;;;;;-143.29;100.00;62188.47;4918645;29;20493;-95
2024/02/17 10:08:11;;;;;;;1.45;0.68;;;;;;;-143.29;100.00;62188.47;4919619;29;20039;-96
2024/02/17 10:10:38;;;;;;;2.55;0.70;;;;;;;-143.29;100.00;62188.47;4919167;29;20115;-95
2024/02/17 10:13:06;;;;;;;1.42;0.80;;;;;;;-143.29;100.00;62188.47;4919667;29;20032;-96
2024/02/17 10:15:32;;;;;;;3.33;1.02;;;;;;;-143.29;100.00;62188.47;4919518;29;20028;-96
2024/02/17 10:17:57;;;;;;;1.38;0.50;;;;;;;-143.29;100.00;62188.47;4918749;29;20051;-96
2024/02/17 10:20:23;;;;;;;2.90;0.68;;;;;;;-143.29;100.00;62188.47;4919269;29;20067;-96
2024/02/17 10:22:49;;;;;;;3.03;1.20;;;;;;;-143.29;100.00;62188.47;4919270;29;20562;-96
2024/02/17 10:25:15;;;;;;;0.98;0.30;;;;;;;-143.29;100.00;62188.47;4919072;29;20119;-96
2024/02/17 10:27:42;;;;;;;0.47;0.38;;;;;;;-143.29;100.00;62188.47;4918771;29;20032;-96
2024/02/17 10:30:16;;;;;;;0.82;0.40;;;;;;;-143.29;100.00;62188.47;4919321;29;20016;-96
2024/02/17 10:32:42;;;;;;;0.93;0.50;;;;;;;-143.29;100.00;62188.47;4918989;29;20028;-96
2024/02/17 10:35:09;;;;;;;1.25;0.45;;;;;;;-143.29;100.00;62188.47;4918878;29;20024;-96
2024/02/17 10:37:38;;;;;;;2.90;0.50;;;;;;;-143.29;100.00;62188.47;4918983;29;20035;-96
2024/02/17 10:40:06;;;;;;;2.40;0.50;;;;;;;-143.29;100.00;62188.47;4918592;29;20028;-95
2024/02/17 10:42:33;;;;;;;2.47;0.73;;;;;;;-143.29;100.00;62188.47;4918359;29;20028;-96
2024/02/17 10:45:02;;;;;;;3.42;0.68;;;;;;;-143.29;100.00;62188.47;4918392;29;20028;-96
2024/02/17 10:47:34;;;;;;;2.70;0.73;;;;;;;-143.29;100.00;62188.47;4918278;29;20043;-96
2024/02/17 10:50:03;;;;;;;;;;;;;;;-143.29;100.00;62188.47;4919088;29;20024;-96
2024/02/17 10:52:33;;;;;;;1.52;0.60;;;;;;;-143.29;100.00;62188.47;4925359;29;19915;-96
2024/02/17 10:55:08;;;;;;;2.88;0.95;;;;;;;-143.29;100.00;62188.47;4926870;29;20057;-96
2024/02/17 10:57:41;;;;;;;2.25;0.65;;;;;;;-143.29;100.00;62188.47;4927263;29;20475;-96
2024/02/17 11:00:09;;;;;;;4.22;1.40;;;;;;;-143.29;100.00;62188.47;4926134;29;20091;-96
2024/02/17 11:02:35;;;;;;;5.93;1.02;;;;;;;-143.29;100.00;62188.47;4925235;29;20028;-96
2024/02/17 11:05:01;;;;;;;5.10;0.80;;;;;;;-143.29;100.00;62188.47;4925608;29;20501;-96
2024/02/17 11:07:29;;;;;;;2.40;0.75;;;;;;;-143.29;100.00;62188.47;4925940;29;20036;-96
2024/02/17 11:10:05;;;;;;;3.30;0.90;;;;;;;-143.29;100.00;62188.47;4924642;29;20518;-96